createdAt,value
2022-12-04T00:01:28.086Z,34.92
2022-12-04T00:03:57.582Z,37.17
2022-12-04T00:06:25.525Z,40.60
2022-12-04T00:08:54.197Z,39.50
2022-12-04T00:11:25.542Z,37.45
2022-12-04T00:13:53.835Z,41.70
2022-12-04T00:16:24.510Z,35.25
2022-12-04T00:18:52.890Z,43.00
2022-12-04T00:21:21.780Z,36.83
2022-12-04T00:23:50.310Z,37.13
2022-12-04T00:26:23.499Z,31.92
2022-12-04T00:28:52.262Z,33.45
2022-12-04T00:31:26.058Z,35.47
2022-12-04T00:33:54.218Z,40.38
2022-12-04T00:36:23.663Z,30.88
2022-12-04T00:38:51.649Z,28.27
2022-12-04T00:41:22.112Z,35.63
2022-12-04T00:43:49.962Z,34.53
2022-12-04T00:46:18.391Z,34.50
2022-12-04T00:48:46.343Z,34.22
2022-12-04T00:51:18.368Z,31.58
2022-12-04T00:53:46.770Z,35.60
2022-12-04T00:56:18.545Z,41.70
2022-12-04T00:58:47.265Z,39.47
2022-12-04T01:01:17.374Z,36.42
2022-12-04T01:03:45.624Z,30.40
2022-12-04T01:06:31.497Z,35.03
2022-12-04T01:09:00.662Z,34.15
2022-12-04T01:11:29.547Z,35.30
2022-12-04T01:13:57.830Z,31.42
2022-12-04T01:16:32.521Z,35.10
2022-12-04T01:19:00.866Z,31.35
2022-12-04T01:21:29.268Z,40.50
2022-12-04T01:23:57.361Z,32.00
2022-12-04T01:26:25.363Z,34.88
2022-12-04T01:28:53.072Z,34.00
2022-12-04T01:31:22.071Z,33.00
2022-12-04T01:33:51.033Z,31.70
2022-12-04T01:36:23.670Z,31.55
2022-12-04T01:38:51.569Z,41.33
2022-12-04T01:41:23.164Z,29.13
2022-12-04T01:44:26.930Z,32.28
2022-12-04T01:47:03.666Z,39.30
2022-12-04T01:49:36.288Z,35.28
2022-12-04T01:52:18.754Z,40.13
2022-12-04T01:54:55.244Z,30.38
2022-12-04T01:57:25.885Z,36.25
2022-12-04T02:00:00.705Z,35.30
2022-12-04T02:02:35.578Z,32.53
2022-12-04T02:05:05.623Z,39.45
2022-12-04T02:07:33.970Z,42.05
2022-12-04T02:10:06.629Z,37.47
2022-12-04T02:12:43.783Z,43.30
2022-12-04T02:15:23.822Z,33.08
2022-12-04T02:17:57.541Z,35.65
2022-12-04T02:20:35.628Z,40.65
2022-12-04T02:23:09.499Z,41.05
2022-12-04T02:25:52.709Z,38.33
2022-12-04T02:28:24.364Z,40.20
2022-12-04T02:30:59.516Z,33.72
2022-12-04T02:34:17.130Z,42.63
2022-12-04T02:36:59.340Z,28.23
2022-12-04T02:39:36.611Z,40.13
2022-12-04T02:42:34.527Z,39.97
2022-12-04T02:45:06.907Z,32.60
2022-12-04T02:47:36.390Z,39.25
2022-12-04T02:50:13.544Z,35.72
2022-12-04T02:52:47.736Z,31.92
2022-12-04T02:55:36.009Z,36.40
2022-12-04T02:58:08.989Z,30.67
2022-12-04T03:00:37.818Z,30.63
2022-12-04T03:03:14.821Z,33.30
2022-12-04T03:05:51.924Z,33.90
2022-12-04T03:08:25.759Z,39.22
2022-12-04T03:10:57.798Z,42.45
2022-12-04T03:13:35.991Z,35.53
2022-12-04T03:16:09.787Z,38.83
2022-12-04T03:18:47.526Z,37.60
2022-12-04T03:21:23.924Z,29.58
2022-12-04T03:24:08.472Z,37.40
2022-12-04T03:26:43.248Z,33.00
2022-12-04T03:29:37.876Z,37.05
2022-12-04T03:32:27.924Z,32.13
2022-12-04T03:35:19.043Z,40.10
2022-12-04T03:38:03.131Z,34.20
2022-12-04T03:40:49.444Z,36.35
2022-12-04T03:43:48.866Z,37.97
2022-12-04T03:46:30.306Z,39.33
2022-12-04T03:49:03.642Z,34.67
2022-12-04T03:51:37.161Z,44.80
2022-12-04T03:54:23.644Z,38.88
2022-12-04T03:57:07.219Z,43.75
2022-12-04T03:59:44.196Z,39.20
2022-12-04T04:02:17.212Z,37.90
2022-12-04T04:04:47.687Z,41.55
2022-12-04T04:07:19.597Z,45.80
2022-12-04T04:09:50.835Z,43.25
2022-12-04T04:12:21.397Z,40.35
2022-12-04T04:15:16.466Z,47.45
2022-12-04T04:18:05.014Z,42.80
2022-12-04T04:21:16.179Z,42.80
2022-12-04T04:24:05.934Z,40.90
2022-12-04T04:26:39.495Z,39.75
2022-12-04T04:29:07.209Z,43.40
2022-12-04T04:31:50.025Z,40.95
2022-12-04T04:34:17.729Z,42.72
2022-12-04T04:37:23.040Z,46.00
2022-12-04T04:39:53.895Z,43.45
2022-12-04T04:42:28.292Z,42.92
2022-12-04T04:45:13.679Z,45.28
2022-12-04T04:47:54.716Z,38.97
2022-12-04T04:50:23.109Z,38.40
2022-12-04T04:52:54.669Z,41.10
2022-12-04T04:55:23.151Z,36.58
2022-12-04T04:57:50.921Z,48.53
2022-12-04T05:00:23.287Z,40.25
2022-12-04T05:02:51.119Z,44.08
2022-12-04T05:05:18.957Z,43.88
2022-12-04T05:07:46.897Z,42.15
2022-12-04T05:10:14.901Z,47.03
2022-12-04T05:12:42.864Z,40.13
2022-12-04T05:15:11.177Z,42.53
2022-12-04T05:17:38.889Z,50.35
2022-12-04T05:20:07.828Z,39.28
2022-12-04T05:22:36.897Z,41.00
2022-12-04T05:25:05.660Z,42.15
2022-12-04T05:27:33.792Z,41.00
2022-12-04T05:30:01.554Z,44.88
2022-12-04T05:32:30.507Z,42.55
2022-12-04T05:34:59.069Z,39.40
2022-12-04T05:37:26.979Z,44.53
2022-12-04T05:39:55.142Z,39.55
2022-12-04T05:42:23.203Z,33.47
2022-12-04T05:44:51.584Z,43.53
2022-12-04T05:47:19.587Z,37.55
2022-12-04T05:49:47.515Z,46.05
2022-12-04T05:52:15.452Z,35.70
2022-12-04T05:54:43.380Z,40.35
2022-12-04T05:57:11.112Z,42.22
2022-12-04T05:59:39.060Z,36.13
2022-12-04T06:02:07.124Z,36.25
2022-12-04T06:04:36.784Z,44.45
2022-12-04T06:07:04.508Z,39.53
2022-12-04T06:09:32.248Z,40.38
2022-12-04T06:12:00.459Z,42.88
2022-12-04T06:14:28.372Z,47.22
2022-12-04T06:16:56.271Z,39.38
2022-12-04T06:19:24.680Z,41.15
2022-12-04T06:21:54.628Z,41.25
2022-12-04T06:24:25.854Z,39.50
2022-12-04T06:27:26.189Z,38.45
2022-12-04T06:29:45.864Z,36.47
2022-12-04T06:32:18.015Z,44.05
2022-12-04T06:34:52.936Z,39.45
2022-12-04T06:37:22.482Z,47.60
2022-12-04T06:39:50.273Z,39.08
2022-12-04T06:42:18.547Z,42.38
2022-12-04T06:44:46.806Z,41.90
2022-12-04T06:47:14.682Z,41.10
2022-12-04T06:49:42.780Z,39.90
2022-12-04T06:52:10.980Z,37.08
2022-12-04T06:54:38.931Z,35.30
2022-12-04T06:57:06.983Z,41.97
2022-12-04T06:59:34.988Z,40.60
2022-12-04T07:02:02.896Z,37.25
2022-12-04T07:04:30.679Z,48.35
2022-12-04T07:06:58.483Z,36.25
2022-12-04T07:09:26.516Z,37.30
2022-12-04T07:11:55.207Z,37.83
2022-12-04T07:14:23.188Z,39.88
2022-12-04T07:16:51.741Z,34.10
2022-12-04T07:19:19.633Z,43.50
2022-12-04T07:21:47.397Z,44.95
2022-12-04T07:24:17.214Z,38.28
2022-12-04T07:26:45.267Z,38.85
2022-12-04T07:29:13.641Z,43.58
2022-12-04T07:31:41.716Z,37.28
2022-12-04T07:34:09.462Z,40.20
2022-12-04T07:36:37.080Z,36.13
2022-12-04T07:39:04.983Z,37.13
2022-12-04T07:41:32.675Z,35.92
2022-12-04T07:44:06.667Z,39.05
2022-12-04T07:46:34.395Z,39.42
2022-12-04T07:49:02.274Z,37.35
2022-12-04T07:51:30.491Z,44.80
2022-12-04T07:54:02.851Z,39.30
2022-12-04T07:56:32.196Z,44.85
2022-12-04T07:59:00.710Z,37.72
2022-12-04T08:01:28.877Z,34.83
2022-12-04T08:03:57.935Z,42.95
2022-12-04T08:06:27.904Z,41.17
2022-12-04T08:08:57.642Z,33.33
2022-12-04T08:11:26.920Z,36.20
2022-12-04T08:14:00.175Z,37.50
2022-12-04T08:16:30.091Z,39.40
2022-12-04T08:18:59.493Z,38.50
2022-12-04T08:21:30.075Z,38.38
2022-12-04T08:23:59.452Z,36.95
2022-12-04T08:26:29.635Z,36.20
2022-12-04T08:29:02.199Z,37.80
2022-12-04T08:31:33.058Z,35.15
2022-12-04T08:34:03.522Z,35.80
2022-12-04T08:36:31.229Z,37.78
2022-12-04T08:38:59.648Z,36.53
2022-12-04T08:41:28.198Z,35.92
2022-12-04T08:43:57.088Z,35.78
2022-12-04T08:46:26.604Z,38.08
2022-12-04T08:48:55.483Z,42.33
2022-12-04T08:51:25.787Z,38.08
2022-12-04T08:53:58.540Z,35.67
2022-12-04T08:56:27.463Z,39.80
2022-12-04T08:58:57.486Z,34.05
2022-12-04T09:01:29.298Z,38.08
2022-12-04T09:06:26.061Z,34.45
2022-12-04T09:08:55.483Z,32.38
2022-12-04T09:11:26.169Z,35.50
2022-12-04T09:13:54.792Z,36.22
2022-12-04T09:16:25.052Z,36.17
2022-12-04T09:18:53.494Z,33.65
2022-12-04T09:21:22.614Z,35.80
2022-12-04T09:23:50.785Z,33.33
2022-12-04T09:26:25.806Z,37.67
2022-12-04T09:28:55.283Z,37.67
2022-12-04T09:31:23.549Z,36.13
2022-12-04T09:33:51.586Z,37.45
2022-12-04T09:36:20.025Z,34.67
2022-12-04T09:38:52.549Z,38.80
2022-12-04T09:41:46.496Z,33.85
2022-12-04T09:44:33.693Z,36.40
2022-12-04T09:47:10.019Z,35.65
2022-12-04T09:49:48.416Z,36.97
2022-12-04T09:52:44.176Z,39.28
2022-12-04T09:55:23.903Z,33.17
2022-12-04T09:57:59.959Z,32.65
2022-12-04T10:00:31.019Z,30.00
2022-12-04T10:03:04.010Z,32.80
2022-12-04T10:05:50.595Z,30.30
2022-12-04T10:08:36.710Z,34.35
2022-12-04T10:11:16.516Z,36.03
2022-12-04T10:13:48.385Z,30.90
2022-12-04T10:19:35.609Z,29.67
2022-12-04T10:22:22.683Z,34.75
2022-12-04T10:24:54.717Z,34.00
2022-12-04T10:27:52.129Z,33.40
2022-12-04T10:30:31.608Z,39.13
2022-12-04T10:33:10.074Z,35.63
2022-12-04T10:35:39.174Z,32.97
2022-12-04T10:38:39.072Z,36.17
2022-12-04T10:41:21.022Z,29.98
2022-12-04T10:46:27.499Z,32.67
2022-12-04T10:49:07.621Z,34.50
2022-12-04T10:51:41.173Z,40.60
2022-12-04T10:54:36.849Z,30.60
2022-12-04T10:57:08.610Z,39.20
2022-12-04T10:59:39.788Z,34.30
2022-12-04T11:02:29.703Z,28.15
2022-12-04T11:05:03.363Z,34.88
2022-12-04T11:07:34.654Z,28.95
2022-12-04T11:10:06.477Z,37.13
2022-12-04T11:12:34.528Z,33.78
2022-12-04T11:15:15.208Z,33.15
2022-12-04T11:17:43.336Z,36.60
2022-12-04T11:20:37.517Z,34.88
2022-12-04T11:23:06.094Z,38.70
2022-12-04T11:25:37.703Z,34.38
2022-12-04T11:28:05.954Z,38.15
2022-12-04T11:30:36.345Z,38.63
2022-12-04T11:33:05.181Z,37.58
2022-12-04T11:35:33.838Z,29.92
2022-12-04T11:38:16.008Z,38.28
2022-12-04T11:40:54.617Z,32.40
2022-12-04T11:43:27.220Z,33.97
2022-12-04T11:46:00.775Z,40.10
2022-12-04T11:48:33.180Z,37.08
2022-12-04T11:51:36.185Z,37.00
2022-12-04T11:54:48.479Z,32.92
2022-12-04T11:57:40.078Z,35.03
2022-12-04T12:00:14.846Z,38.22
2022-12-04T12:03:03.801Z,32.13
2022-12-04T12:05:37.683Z,37.13
2022-12-04T12:08:12.842Z,41.78
2022-12-04T12:10:55.560Z,38.78
2022-12-04T12:13:45.710Z,38.25
2022-12-04T12:16:37.973Z,34.92
2022-12-04T12:19:30.427Z,38.78
2022-12-04T12:22:26.621Z,37.08
2022-12-04T12:25:04.238Z,36.38
2022-12-04T12:27:48.190Z,37.28
2022-12-04T12:30:19.017Z,35.45
2022-12-04T12:32:59.230Z,34.00
2022-12-04T12:35:44.683Z,36.58
2022-12-04T12:38:28.740Z,37.38
2022-12-04T12:41:12.197Z,32.60
2022-12-04T12:43:40.858Z,40.75
2022-12-04T12:47:00.723Z,37.83
2022-12-04T12:49:35.894Z,37.28
2022-12-04T12:52:07.975Z,37.80
2022-12-04T12:54:50.983Z,37.05
2022-12-04T12:57:30.234Z,39.45
2022-12-04T13:00:13.408Z,32.72
2022-12-04T13:02:50.772Z,34.85
2022-12-04T13:05:30.799Z,38.53
2022-12-04T13:08:21.234Z,33.10
2022-12-04T13:11:18.131Z,37.17
2022-12-04T13:14:06.202Z,40.35
2022-12-04T13:16:36.417Z,38.03
2022-12-04T13:19:09.902Z,39.80
2022-12-04T13:21:57.296Z,40.95
2022-12-04T13:24:43.487Z,35.38
2022-12-04T13:27:36.373Z,30.67
2022-12-04T13:30:23.002Z,34.00
2022-12-04T13:33:08.952Z,42.47
2022-12-04T13:36:01.359Z,37.15
2022-12-04T13:38:37.941Z,39.33
2022-12-04T13:41:09.511Z,40.70
2022-12-04T13:43:43.266Z,32.67
2022-12-04T13:46:42.963Z,37.85
2022-12-04T13:49:25.832Z,35.83
2022-12-04T13:51:55.006Z,37.03
2022-12-04T13:54:26.187Z,35.53
2022-12-04T13:56:56.698Z,34.55
2022-12-04T13:59:35.561Z,35.83
2022-12-04T14:02:20.124Z,41.00
2022-12-04T14:04:55.479Z,34.33
2022-12-04T14:07:32.587Z,36.38
2022-12-04T14:10:05.066Z,35.45
2022-12-04T14:12:43.930Z,39.72
2022-12-04T14:15:30.333Z,32.85
2022-12-04T14:18:05.373Z,32.00
2022-12-04T14:20:34.570Z,35.83
2022-12-04T14:23:26.283Z,35.50
2022-12-04T14:25:58.076Z,35.97
2022-12-04T14:31:09.303Z,30.20
2022-12-04T14:33:44.711Z,35.25
2022-12-04T14:36:24.714Z,31.80
2022-12-04T14:39:03.679Z,36.25
2022-12-04T14:41:34.245Z,32.95
2022-12-04T14:44:02.067Z,31.55
2022-12-04T14:46:40.553Z,29.45
2022-12-04T14:49:26.312Z,32.35
2022-12-04T14:52:23.289Z,36.90
2022-12-04T14:55:03.165Z,32.33
2022-12-04T14:57:52.131Z,30.60
2022-12-04T15:00:22.605Z,35.45
2022-12-04T15:02:53.779Z,27.23
2022-12-04T15:05:25.250Z,28.85
2022-12-04T15:07:57.268Z,28.90
2022-12-04T15:10:46.359Z,28.83
2022-12-04T15:13:21.451Z,28.40
2022-12-04T15:15:53.587Z,31.08
2022-12-04T15:18:21.857Z,30.98
2022-12-04T15:20:49.555Z,34.53
2022-12-04T15:23:37.705Z,30.05
2022-12-04T15:26:18.617Z,30.35
2022-12-04T15:28:52.264Z,32.08
2022-12-04T15:31:32.020Z,32.45
2022-12-04T15:34:03.557Z,30.05
2022-12-04T15:36:40.472Z,31.90
2022-12-04T15:39:08.287Z,34.13
2022-12-04T15:41:37.362Z,29.73
2022-12-04T15:44:32.877Z,31.75
2022-12-04T15:47:15.771Z,29.10
2022-12-04T15:49:43.733Z,34.08
2022-12-04T15:52:16.510Z,31.33
2022-12-04T15:54:51.776Z,31.88
2022-12-04T15:57:27.733Z,28.65
2022-12-04T15:59:55.984Z,35.72
2022-12-04T16:02:33.130Z,35.08
2022-12-04T16:05:23.087Z,36.33
2022-12-04T16:07:54.772Z,38.05
2022-12-04T16:10:25.659Z,32.67
2022-12-04T16:13:02.506Z,34.95
2022-12-04T16:15:40.113Z,34.55
2022-12-04T16:18:11.710Z,36.25
2022-12-04T16:20:40.569Z,35.92
2022-12-04T16:23:08.454Z,37.03
2022-12-04T16:25:36.429Z,36.80
2022-12-04T16:28:04.429Z,43.17
2022-12-04T16:30:34.308Z,41.67
2022-12-04T16:33:02.433Z,41.00
2022-12-04T16:35:31.767Z,48.10
2022-12-04T16:37:59.596Z,36.40
2022-12-04T16:40:27.510Z,36.85
2022-12-04T16:42:55.413Z,41.10
2022-12-04T16:45:25.205Z,40.90
2022-12-04T16:47:53.142Z,36.30
2022-12-04T16:50:21.166Z,37.25
2022-12-04T16:52:48.976Z,30.33
2022-12-04T16:55:19.372Z,42.15
2022-12-04T16:57:47.570Z,34.85
2022-12-04T17:00:19.549Z,39.10
2022-12-04T17:02:47.309Z,36.92
2022-12-04T17:05:26.362Z,31.05
2022-12-04T17:07:54.789Z,32.92
2022-12-04T17:10:24.189Z,38.97
2022-12-04T17:12:55.968Z,32.95
2022-12-04T17:15:24.166Z,31.33
2022-12-04T17:17:52.042Z,30.73
2022-12-04T17:20:21.449Z,35.35
2022-12-04T17:22:49.484Z,30.92
2022-12-04T17:25:17.930Z,35.08
2022-12-04T17:27:46.074Z,34.80
2022-12-04T17:30:15.234Z,31.05
2022-12-04T17:32:43.337Z,29.20
2022-12-04T17:35:12.683Z,30.25
2022-12-04T17:37:40.790Z,33.00
2022-12-04T17:40:10.875Z,33.85
2022-12-04T17:42:38.680Z,30.92
2022-12-04T17:45:07.252Z,32.10
2022-12-04T17:47:38.479Z,27.30
2022-12-04T17:50:07.538Z,30.42
2022-12-04T17:52:35.235Z,29.52
2022-12-04T17:55:03.082Z,33.97
2022-12-04T17:57:30.826Z,28.08
2022-12-04T17:59:58.838Z,35.70
2022-12-04T18:02:26.675Z,31.48
2022-12-04T18:04:55.711Z,33.72
2022-12-04T18:07:23.667Z,25.25
2022-12-04T18:09:51.499Z,27.00
2022-12-04T18:12:19.446Z,34.55
2022-12-04T18:14:47.215Z,29.42
2022-12-04T18:17:17.704Z,34.80
2022-12-04T18:19:45.578Z,29.98
2022-12-04T18:22:13.820Z,28.85
2022-12-04T18:24:41.941Z,29.63
2022-12-04T18:27:09.993Z,30.35
2022-12-04T18:29:37.886Z,32.55
2022-12-04T18:32:05.883Z,23.98
2022-12-04T18:34:33.747Z,28.23
2022-12-04T18:37:01.458Z,30.13
2022-12-04T18:39:29.228Z,28.48
2022-12-04T18:41:57.431Z,28.33
2022-12-04T18:44:26.422Z,26.33
2022-12-04T18:46:56.979Z,30.05
2022-12-04T18:49:24.823Z,30.05
2022-12-04T18:51:55.105Z,25.92
2022-12-04T18:54:25.244Z,25.65
2022-12-04T18:56:53.338Z,28.15
2022-12-04T18:59:26.156Z,31.92
2022-12-04T19:01:55.167Z,29.25
2022-12-04T19:04:24.536Z,27.38
2022-12-04T19:06:56.895Z,25.58
2022-12-04T19:09:54.415Z,29.73
2022-12-04T19:12:16.287Z,26.00
2022-12-04T19:14:44.183Z,29.65
2022-12-04T19:17:12.084Z,29.75
2022-12-04T19:19:39.891Z,30.65
2022-12-04T19:22:07.681Z,28.30
2022-12-04T19:24:35.510Z,28.63
2022-12-04T19:27:11.281Z,25.60
2022-12-04T19:29:40.497Z,27.17
2022-12-04T19:32:09.162Z,26.38
2022-12-04T19:34:37.429Z,28.55
2022-12-04T19:37:05.200Z,24.83
2022-12-04T19:39:33.105Z,29.73
2022-12-04T19:42:01.000Z,26.42
2022-12-04T19:47:17.105Z,23.33
2022-12-04T19:49:45.164Z,29.27
2022-12-04T19:52:13.362Z,25.67
2022-12-04T19:54:41.120Z,32.08
2022-12-04T19:57:08.844Z,26.63
2022-12-04T19:59:41.762Z,27.38
2022-12-04T20:02:13.447Z,25.65
2022-12-04T20:04:41.619Z,29.65
2022-12-04T20:07:09.590Z,29.23
2022-12-04T20:09:37.719Z,26.08
2022-12-04T20:12:05.820Z,27.67
2022-12-04T20:14:33.763Z,27.52
2022-12-04T20:17:04.108Z,24.48
2022-12-04T20:19:32.712Z,22.95
2022-12-04T20:22:00.558Z,29.52
2022-12-04T20:24:28.691Z,23.67
2022-12-04T20:26:56.624Z,21.80
2022-12-04T20:29:27.412Z,26.02
2022-12-04T20:31:55.320Z,27.25
2022-12-04T20:34:23.202Z,27.60
2022-12-04T20:36:51.314Z,27.60
2022-12-04T20:39:20.240Z,26.35
2022-12-04T20:41:48.405Z,27.90
2022-12-04T20:44:17.951Z,26.58
2022-12-04T20:46:46.746Z,29.40
2022-12-04T20:49:21.963Z,23.35
2022-12-04T20:51:51.871Z,24.75
2022-12-04T20:54:21.800Z,24.35
2022-12-04T20:56:50.498Z,25.67
2022-12-04T20:59:19.502Z,29.23
2022-12-04T21:01:52.035Z,26.67
2022-12-04T21:04:20.551Z,28.20
2022-12-04T21:06:48.523Z,24.60
2022-12-04T21:09:23.244Z,22.00
2022-12-04T21:11:55.496Z,23.52
2022-12-04T21:14:47.627Z,26.17
2022-12-04T21:19:49.305Z,26.15
2022-12-04T21:22:18.882Z,24.25
2022-12-04T21:24:49.318Z,26.20
2022-12-04T21:27:20.981Z,27.25
2022-12-04T21:29:49.631Z,24.40
2022-12-04T21:32:19.295Z,21.83
2022-12-04T21:34:47.199Z,26.40
2022-12-04T21:37:15.163Z,27.50
2022-12-04T21:39:43.971Z,25.10
2022-12-04T21:42:30.336Z,28.42
2022-12-04T21:44:59.254Z,23.25
2022-12-04T21:47:27.845Z,28.50
2022-12-04T21:49:56.262Z,20.40
2022-12-04T21:52:24.432Z,26.85
2022-12-04T21:54:53.647Z,23.10
2022-12-04T21:57:22.071Z,27.25
2022-12-04T21:59:51.791Z,22.77
2022-12-04T22:02:19.878Z,22.10
2022-12-04T22:04:48.341Z,28.67
2022-12-04T22:07:16.301Z,24.48
2022-12-04T22:09:44.212Z,26.40
2022-12-04T22:12:41.226Z,25.33
2022-12-04T22:14:59.755Z,27.00
2022-12-04T22:17:29.982Z,28.98
2022-12-04T22:19:57.912Z,27.23
2022-12-04T22:22:26.115Z,22.65
2022-12-04T22:24:54.200Z,21.02
2022-12-04T22:27:22.051Z,23.85
2022-12-04T22:29:51.276Z,26.90
2022-12-04T22:32:20.141Z,23.80
2022-12-04T22:34:51.255Z,25.75
2022-12-04T22:37:19.184Z,21.05
2022-12-04T22:39:46.953Z,27.65
2022-12-04T22:42:14.574Z,25.55
2022-12-04T22:44:42.580Z,23.15
2022-12-04T22:47:10.652Z,26.75
2022-12-04T22:49:41.401Z,21.45
2022-12-04T22:52:09.121Z,23.27
2022-12-04T22:54:36.859Z,20.67
2022-12-04T22:57:04.638Z,26.98
2022-12-04T22:59:33.279Z,23.52
2022-12-04T23:02:01.005Z,27.40
2022-12-04T23:04:29.027Z,21.55
2022-12-04T23:06:57.293Z,20.42
2022-12-04T23:09:26.353Z,23.83
2022-12-04T23:11:55.358Z,22.65
2022-12-04T23:14:24.620Z,22.63
2022-12-04T23:16:52.464Z,25.38
2022-12-04T23:19:21.011Z,22.95
2022-12-04T23:21:56.394Z,22.77
2022-12-04T23:24:25.556Z,18.48
2022-12-04T23:26:53.532Z,20.95
2022-12-04T23:29:52.752Z,22.08
2022-12-04T23:32:09.721Z,19.10
2022-12-04T23:34:37.792Z,21.27
2022-12-04T23:37:05.783Z,18.35
2022-12-04T23:39:33.503Z,18.95
2022-12-04T23:42:01.484Z,23.27
2022-12-04T23:44:29.567Z,24.88
2022-12-04T23:46:57.424Z,24.83
2022-12-04T23:49:25.594Z,24.40
2022-12-04T23:51:53.503Z,27.13
2022-12-04T23:54:21.350Z,19.35
2022-12-04T23:56:49.629Z,19.95
2022-12-04T23:59:17.632Z,19.70
